Nearby METAR Reports

 

ENRY - Rygge (nor-Afb), Norway
Distance from station: SØ 12km
Oppdatert: 11/04/2021 09:50
Klart
Klart
 Vind fra N
Vind: N 11 km/h
Temperatur: 3°C
Wind Chill: 0°C
Duggpunkt: -6°C
Fuktighet: 52%
Barometer: 1016 hPa
Oversikt: Klart
Visibility: greater than 10 km
2021/04/11 07:50 ENRY 110750Z 01006KT 330V030 CAVOK 03/M06 Q1016
ENTO - Torp (civ/Nor-Af, Norway
Distance from station: SV 34km
Oppdatert: 11/04/2021 05:50
NOT Current
Klart
Klart
 Vind fra N
Vind: N 9 km/h
Temperatur: -2°C
Wind Chill: -6°C
Duggpunkt: -8°C
Fuktighet: 64%
Barometer: 1015 hPa
Clouds: Klart
Visibility: 10 km
2021/04/11 03:50 ENTO 110350Z AUTO 36005KT 9999 NCD M02/M08 Q1015
 
ENNO - Notodden, Norway
Distance from station: V 80km
Oppdatert: 10/04/2021 16:50
NOT Current
Klart
Klart
 Vind fra NV
Vind: NV 17 km/h
Temperatur: 9°C
Wind Chill: 7°C
Duggpunkt: -9°C
Fuktighet: 27%
Barometer: 1010 hPa
Oversikt: Klart
Visibility: greater than 10 km
2021/04/10 14:50 ENNO 101450Z 31009KT CAVOK 09/M09 Q1010
ENGM - Oslo/Gardermoen, Norway
Distance from station: NNØ 88km
Oppdatert: 11/04/2021 09:50
Klart
Klart
 Vind fra NNØ
Vind: NNØ 11 km/h
Temperatur: 2°C
Wind Chill: -1°C
Duggpunkt: -8°C
Fuktighet: 48%
Barometer: 1016 hPa
Oversikt: Klart
Visibility: greater than 10 km
2021/04/11 07:50 ENGM 110750Z 02006KT CAVOK 02/M08 Q1016 NOSIG
 
ESOK - Karlstad North, Sweden
Distance from station: Ø 153km
Oppdatert: 11/04/2021 09:50
Overskyet
Overskyet
 Vind fra Ø
Vind: Ø 9 km/h
Temperatur: 2°C
Wind Chill: -1°C
Duggpunkt: 1°C
Fuktighet: 93%
Barometer: 1017 hPa
Clouds: Overskyet
Visibility: 10 km
Cloud details: Overskyet 152 m
2021/04/11 07:50 ESOK 110750Z AUTO 09005KT 060V130 9999 OVC005/// 02/01 Q1017
ESST - Torsby, Sweden
Distance from station: ØNØ 154km
Oppdatert: 11/04/2021 09:20
Klart
Klart
 Vind fra varies
Vind: varies 2 km/h
Temperatur: 0°C
Duggpunkt: -5°C
Fuktighet: 69%
Barometer: 1017 hPa
Clouds: Klart
Visibility: 10 km
2021/04/11 07:20 ESST 110720Z AUTO VRB01KT 9999 NCD 00/M05 Q1017
 
ESGT - Trollhattan (pvt, Sweden
Distance from station: SØ 159km
Oppdatert: 11/04/2021 09:50
Hovedsaklig skyet
Hovedsaklig skyet
 Vind fra varies
Vind: varies 6 km/h
Temperatur: 2°C
Duggpunkt: 1°C
Fuktighet: 93%
Barometer: 1016 hPa
Clouds: Hovedsaklig skyet
Visibility: 10 km
Cloud details: Hovedsaklig skyet 2926 m
2021/04/11 07:50 ESGT 110750Z AUTO VRB03KT 9999 BKN096/// 02/01 Q1016
ESIB - Satenas (swe-Afb, Sweden
Distance from station: SØ 164km
Oppdatert: 11/04/2021 09:50
Few Clouds
Few Clouds
 Vind fra Ø
Vind: Ø 6 km/h
Temperatur: 3°C
Duggpunkt: 3°C
Fuktighet: 100%
Barometer: 1016 hPa
Clouds: Few Clouds
Visibility: 10 km
Cloud details: Few Clouds 3353 m
2021/04/11 07:50 ESIB 110750Z AUTO 08003KT 060V120 9999 FEW110/// 03/03 Q1016
 
ENCN - Kristiansand/Kje, Norway
Distance from station: SV 202km
Oppdatert: 11/04/2021 09:50
Klart
Klart
 Vind fra NØ
Vind: NØ 19 km/h
Temperatur: 3°C
Wind Chill: -2°C
Duggpunkt: -4°C
Fuktighet: 60%
Barometer: 1015 hPa
Oversikt: Klart
Visibility: greater than 10 km
2021/04/11 07:50 ENCN 110750Z 04010KT CAVOK 03/M04 Q1015
EKSN - Sindal Airport, Denmark
Distance from station: S 217km
Oppdatert: 09/04/2021 14:50
NOT Current
Hovedsaklig skyet
Hovedsaklig skyet
 Vind fra V
Vind: V 54 km/h, Vindkast: 74 km/h
Temperatur: 6°C
Wind Chill: 0°C
Duggpunkt: 1°C
Fuktighet: 71%
Barometer: 1000 hPa
Clouds: Hovedsaklig skyet
Visibility: 10 km
Cloud details: Hovedsaklig skyet 792 m
2021/04/09 12:50 EKSN 091250Z 26029G40KT 9999 BKN026 06/01 Q1000
 
ESGG - Goteborg/Landvet, Sweden
Distance from station: SSØ 220km
Oppdatert: 11/04/2021 09:50
Delvis skyet
Delvis skyet
 Vind fra ØSØ
Vind: ØSØ 13 km/h
Temperatur: 2°C
Wind Chill: -1°C
Duggpunkt: 0°C
Fuktighet: 87%
Barometer: 1015 hPa
Clouds: Delvis skyet
Visibility: 10 km
Cloud details: Delvis skyet 1311 m
2021/04/11 07:50 ESGG 110750Z 12007KT 9999 SCT043 02/M00 Q1015 R21/09//95
ESGR - Skovde Airport, Sweden
Distance from station: ØSØ 221km
Oppdatert: 11/04/2021 09:50
Hovedsaklig skyet
Hovedsaklig skyet
 Vind fra varies
Vind: varies 4 km/h
Temperatur: 3°C
Duggpunkt: 0°C
Fuktighet: 81%
Barometer: 1017 hPa
Clouds: Hovedsaklig skyet
Visibility: 10 km
Cloud details: Hovedsaklig skyet 3353 m
2021/04/11 07:50 ESGR 110750Z AUTO VRB02KT 9999 BKN110/// 03/00 Q1017
 
ESOE - Orebro (private), Sweden
Distance from station: Ø 252km
Oppdatert: 11/04/2021 09:50
Tåke, Overskyet
Tåke, Overskyet
 Vind fra varies
Vind: varies 2 km/h
Temperatur: 2°C
Duggpunkt: 1°C
Fuktighet: 93%
Barometer: 1018 hPa
Oversikt: Tåke
Clouds: Overskyet
Visibility: 8 km
Cloud details: Overskyet 61 m
2021/04/11 07:50 ESOE 110750Z AUTO VRB01KT 8000 BR VV002 02/01 Q1018
EKYT - Alborg, Denmark
Distance from station: S 264km
Oppdatert: 11/04/2021 09:51
Yr, Delvis skyet
Yr, Delvis skyet
 Vind fra Ø
Vind: Ø 15 km/h
Temperatur: 3°C
Wind Chill: -1°C
Duggpunkt: 2°C
Fuktighet: 93%
Barometer: 1014 hPa
Oversikt: Yr
Clouds: Delvis skyet
Visibility: 10 km
2021/04/11 07:51 EKYT 110751Z 10008KT 050V130 9999 -DZ NSC 03/02 Q1014
 
ENSG - Sogndal/Haukasen, Norway
Distance from station: NV 269km
Oppdatert: 10/04/2021 09:50
NOT Current
Nearby showers, Hovedsaklig skyet
Nearby showers, Hovedsaklig skyet
 Vind fra VSV
Vind: VSV 17 km/h
Temperatur: -1°C
Wind Chill: -6°C
Duggpunkt: -6°C
Fuktighet: 69%
Barometer: 1004 hPa
Oversikt: Nearby Showers
Clouds: Hovedsaklig skyet
Visibility: 10 km
Cloud details: Delvis skyet 671 m
Hovedsaklig skyet 1219 m
2021/04/10 07:50 ENSG 100750Z 25009KT 9999 VCSH SCT022 BKN040 M01/M06 Q1004 RMK WIND 3806FT 27020KT
ESGJ - Jonkoping Airpor, Sweden
Distance from station: SØ 273km
Oppdatert: 11/04/2021 09:50
Klart
Klart
 Vind fra ØSØ
Vind: ØSØ 9 km/h
Temperatur: 2°C
Wind Chill: -1°C
Duggpunkt: 0°C
Fuktighet: 87%
Barometer: 1016 hPa
Clouds: Klart
Visibility: 10 km
2021/04/11 07:50 ESGJ 110750Z AUTO 12005KT 9999 NCD 02/00 Q1016
 
ENZV - Stavanger/Sola(A, Norway
Distance from station: V 292km
Oppdatert: 11/04/2021 09:50
Klart
Klart
 Vind fra NNØ
Vind: NNØ 9 km/h
Temperatur: 3°C
Wind Chill: 0°C
Duggpunkt: -2°C
Fuktighet: 70%
Barometer: 1016 hPa
Oversikt: Klart
Visibility: greater than 10 km
2021/04/11 07:50 ENZV 110750Z 02005KT CAVOK 03/M02 Q1016 NOSIG
ESSD - Borlange (swe-Af, Sweden
Distance from station: ØNØ 292km
Oppdatert: 11/04/2021 09:50
Klart
Klart
 Vind fra varies
Vind: varies 4 km/h
Temperatur: 3°C
Duggpunkt: -5°C
Fuktighet: 56%
Barometer: 1018 hPa
Clouds: Klart
Visibility: 10 km
2021/04/11 07:50 ESSD 110750Z AUTO VRB02KT 9999 NCD 03/M05 Q1018
 
ENSO - Stord/Soerstokke, Norway
Distance from station: V 300km
Oppdatert: 09/04/2021 14:50
NOT Current
Lett snø, Showers, Delvis skyet
Lett snø, Showers, Delvis skyet
 Vind fra varies
Vind: varies 22 km/h
Temperatur: 6°C
Wind Chill: 2°C
Duggpunkt: 0°C
Fuktighet: 66%
Barometer: 999 hPa
Oversikt: Lett snø, Showers
Clouds: Delvis skyet
Visibility: 10 km
Cloud details: Delvis skyet 975 m
Delvis skyet 2073 m
2021/04/09 12:50 ENSO 091250Z VRB12KT 9999 -SHSN SCT032CB SCT068 06/M00 Q0999
ESCF - Linkoping/Malmen, Sweden
Distance from station: ØSØ 305km
Oppdatert: 11/04/2021 09:50
Hovedsaklig skyet
Hovedsaklig skyet
 Vind fra Ø
Vind: Ø 6 km/h
Temperatur: 4°C
Duggpunkt: 0°C
Fuktighet: 75%
Barometer: 1018 hPa
Clouds: Hovedsaklig skyet
Visibility: 10 km
Cloud details: Hovedsaklig skyet 3658 m
2021/04/11 07:50 ESCF 110750Z AUTO 09003KT 050V130 9999 BKN120/// 04/M00 Q1018